sensor_id;sensor_type;location;lat;lon;timestamp;P1;durP1;ratioP1;P2;durP2;ratioP2
20505;SDS011;10411;48.148;7.704;2022-07-23T00:00:39;21.43;;;19.97;;
20505;SDS011;10411;48.148;7.704;2022-07-23T00:03:15;21.07;;;19.67;;
20505;SDS011;10411;48.148;7.704;2022-07-23T00:05:47;21.50;;;19.97;;
20505;SDS011;10411;48.148;7.704;2022-07-23T00:08:19;21.40;;;20.03;;
20505;SDS011;10411;48.148;7.704;2022-07-23T00:11:00;22.50;;;20.57;;
20505;SDS011;10411;48.148;7.704;2022-07-23T00:13:32;21.80;;;20.37;;
20505;SDS011;10411;48.148;7.704;2022-07-23T00:16:06;21.77;;;20.30;;
20505;SDS011;10411;48.148;7.704;2022-07-23T00:18:37;22.63;;;21.13;;
20505;SDS011;10411;48.148;7.704;2022-07-23T00:21:10;23.50;;;21.90;;
20505;SDS011;10411;48.148;7.704;2022-07-23T00:23:58;23.80;;;21.97;;
20505;SDS011;10411;48.148;7.704;2022-07-23T00:26:28;22.77;;;21.27;;
20505;SDS011;10411;48.148;7.704;2022-07-23T00:29:01;23.57;;;21.77;;
20505;SDS011;10411;48.148;7.704;2022-07-23T00:31:34;22.80;;;21.30;;
20505;SDS011;10411;48.148;7.704;2022-07-23T00:34:00;22.23;;;20.73;;
20505;SDS011;10411;48.148;7.704;2022-07-23T00:36:32;23.07;;;21.50;;
20505;SDS011;10411;48.148;7.704;2022-07-23T00:39:03;22.43;;;20.77;;
20505;SDS011;10411;48.148;7.704;2022-07-23T00:41:31;21.83;;;20.17;;
20505;SDS011;10411;48.148;7.704;2022-07-23T00:44:23;22.40;;;20.90;;
20505;SDS011;10411;48.148;7.704;2022-07-23T00:46:55;22.10;;;20.70;;
20505;SDS011;10411;48.148;7.704;2022-07-23T00:49:42;22.00;;;20.50;;
20505;SDS011;10411;48.148;7.704;2022-07-23T00:55:22;21.60;;;20.10;;
20505;SDS011;10411;48.148;7.704;2022-07-23T00:57:48;21.77;;;20.10;;
20505;SDS011;10411;48.148;7.704;2022-07-23T01:00:15;21.50;;;19.77;;
20505;SDS011;10411;48.148;7.704;2022-07-23T01:02:47;21.73;;;20.33;;
20505;SDS011;10411;48.148;7.704;2022-07-23T01:05:27;22.00;;;20.50;;
20505;SDS011;10411;48.148;7.704;2022-07-23T01:08:02;22.83;;;21.23;;
20505;SDS011;10411;48.148;7.704;2022-07-23T01:10:46;22.60;;;20.80;;
20505;SDS011;10411;48.148;7.704;2022-07-23T01:13:19;23.53;;;21.70;;
20505;SDS011;10411;48.148;7.704;2022-07-23T01:15:48;22.50;;;20.90;;
20505;SDS011;10411;48.148;7.704;2022-07-23T01:18:20;23.17;;;21.37;;
20505;SDS011;10411;48.148;7.704;2022-07-23T01:21:07;22.80;;;20.80;;
20505;SDS011;10411;48.148;7.704;2022-07-23T01:23:36;22.63;;;20.90;;
20505;SDS011;10411;48.148;7.704;2022-07-23T01:26:04;22.27;;;20.60;;
20505;SDS011;10411;48.148;7.704;2022-07-23T01:28:53;24.30;;;22.00;;
20505;SDS011;10411;48.148;7.704;2022-07-23T01:31:39;21.97;;;20.37;;
20505;SDS011;10411;48.148;7.704;2022-07-23T01:34:12;22.27;;;20.57;;
20505;SDS011;10411;48.148;7.704;2022-07-23T01:36:44;22.97;;;21.30;;
20505;SDS011;10411;48.148;7.704;2022-07-23T01:39:12;22.20;;;20.60;;
20505;SDS011;10411;48.148;7.704;2022-07-23T01:41:44;23.07;;;21.23;;
20505;SDS011;10411;48.148;7.704;2022-07-23T01:44:13;22.60;;;21.10;;
20505;SDS011;10411;48.148;7.704;2022-07-23T01:46:47;23.03;;;21.23;;
20505;SDS011;10411;48.148;7.704;2022-07-23T01:52:21;23.03;;;21.33;;
20505;SDS011;10411;48.148;7.704;2022-07-23T01:54:50;22.93;;;21.33;;
20505;SDS011;10411;48.148;7.704;2022-07-23T01:57:29;23.30;;;21.60;;
20505;SDS011;10411;48.148;7.704;2022-07-23T01:59:57;22.40;;;20.40;;
20505;SDS011;10411;48.148;7.704;2022-07-23T02:02:26;22.40;;;20.60;;
20505;SDS011;10411;48.148;7.704;2022-07-23T02:04:55;22.47;;;20.57;;
20505;SDS011;10411;48.148;7.704;2022-07-23T02:07:31;22.40;;;20.90;;
20505;SDS011;10411;48.148;7.704;2022-07-23T02:09:57;22.63;;;20.83;;
20505;SDS011;10411;48.148;7.704;2022-07-23T02:12:31;22.13;;;20.60;;
20505;SDS011;10411;48.148;7.704;2022-07-23T02:14:57;22.70;;;21.20;;
20505;SDS011;10411;48.148;7.704;2022-07-23T02:17:35;23.83;;;22.00;;
20505;SDS011;10411;48.148;7.704;2022-07-23T02:20:08;23.37;;;21.63;;
20505;SDS011;10411;48.148;7.704;2022-07-23T02:22:40;22.87;;;21.17;;
20505;SDS011;10411;48.148;7.704;2022-07-23T02:25:09;24.17;;;22.37;;
20505;SDS011;10411;48.148;7.704;2022-07-23T02:27:38;24.03;;;22.33;;
20505;SDS011;10411;48.148;7.704;2022-07-23T02:30:09;23.40;;;21.80;;
20505;SDS011;10411;48.148;7.704;2022-07-23T02:32:51;23.10;;;21.40;;
20505;SDS011;10411;48.148;7.704;2022-07-23T02:35:17;24.00;;;22.30;;
20505;SDS011;10411;48.148;7.704;2022-07-23T02:37:52;24.17;;;22.13;;
20505;SDS011;10411;48.148;7.704;2022-07-23T02:40:22;23.37;;;21.67;;
20505;SDS011;10411;48.148;7.704;2022-07-23T02:42:51;23.70;;;21.93;;
20505;SDS011;10411;48.148;7.704;2022-07-23T02:45:22;24.27;;;22.60;;
20505;SDS011;10411;48.148;7.704;2022-07-23T02:47:51;23.50;;;21.80;;
20505;SDS011;10411;48.148;7.704;2022-07-23T02:50:25;23.97;;;22.23;;
20505;SDS011;10411;48.148;7.704;2022-07-23T02:52:57;24.67;;;22.73;;
20505;SDS011;10411;48.148;7.704;2022-07-23T02:55:28;23.80;;;22.10;;
20505;SDS011;10411;48.148;7.704;2022-07-23T02:57:56;22.30;;;20.80;;
20505;SDS011;10411;48.148;7.704;2022-07-23T03:00:28;24.23;;;22.53;;
20505;SDS011;10411;48.148;7.704;2022-07-23T03:03:03;23.67;;;21.93;;
20505;SDS011;10411;48.148;7.704;2022-07-23T03:05:36;23.43;;;21.73;;
20505;SDS011;10411;48.148;7.704;2022-07-23T03:10:39;23.27;;;21.37;;
20505;SDS011;10411;48.148;7.704;2022-07-23T03:13:11;22.83;;;21.23;;
20505;SDS011;10411;48.148;7.704;2022-07-23T03:18:23;23.53;;;21.83;;
20505;SDS011;10411;48.148;7.704;2022-07-23T03:21:01;22.83;;;21.30;;
20505;SDS011;10411;48.148;7.704;2022-07-23T03:23:33;20.97;;;19.47;;
20505;SDS011;10411;48.148;7.704;2022-07-23T03:26:14;23.10;;;21.50;;
20505;SDS011;10411;48.148;7.704;2022-07-23T03:28:42;22.27;;;20.67;;
20505;SDS011;10411;48.148;7.704;2022-07-23T03:31:23;22.50;;;20.97;;
20505;SDS011;10411;48.148;7.704;2022-07-23T03:33:58;23.43;;;21.63;;
20505;SDS011;10411;48.148;7.704;2022-07-23T03:36:27;23.63;;;21.83;;
20505;SDS011;10411;48.148;7.704;2022-07-23T03:39:01;22.93;;;21.23;;
20505;SDS011;10411;48.148;7.704;2022-07-23T03:41:34;22.97;;;21.37;;
20505;SDS011;10411;48.148;7.704;2022-07-23T03:44:09;22.13;;;20.40;;
20505;SDS011;10411;48.148;7.704;2022-07-23T03:46:41;21.73;;;20.40;;
20505;SDS011;10411;48.148;7.704;2022-07-23T03:49:13;22.87;;;21.07;;
20505;SDS011;10411;48.148;7.704;2022-07-23T03:51:52;23.53;;;21.83;;
20505;SDS011;10411;48.148;7.704;2022-07-23T03:54:29;23.17;;;21.57;;
20505;SDS011;10411;48.148;7.704;2022-07-23T03:56:55;23.20;;;21.53;;
20505;SDS011;10411;48.148;7.704;2022-07-23T03:59:21;23.17;;;21.50;;
20505;SDS011;10411;48.148;7.704;2022-07-23T04:01:58;22.30;;;20.63;;
20505;SDS011;10411;48.148;7.704;2022-07-23T04:04:24;22.33;;;20.80;;
20505;SDS011;10411;48.148;7.704;2022-07-23T04:07:06;23.23;;;21.33;;
20505;SDS011;10411;48.148;7.704;2022-07-23T04:09:42;22.63;;;21.07;;
20505;SDS011;10411;48.148;7.704;2022-07-23T04:12:24;22.47;;;20.87;;
20505;SDS011;10411;48.148;7.704;2022-07-23T04:15:08;22.07;;;20.57;;
20505;SDS011;10411;48.148;7.704;2022-07-23T04:17:52;23.20;;;21.40;;
20505;SDS011;10411;48.148;7.704;2022-07-23T04:20:18;22.60;;;21.03;;
20505;SDS011;10411;48.148;7.704;2022-07-23T04:23:05;22.50;;;20.80;;
20505;SDS011;10411;48.148;7.704;2022-07-23T04:25:51;22.67;;;21.07;;
20505;SDS011;10411;48.148;7.704;2022-07-23T04:28:25;22.33;;;20.80;;
20505;SDS011;10411;48.148;7.704;2022-07-23T04:31:10;22.80;;;21.23;;
20505;SDS011;10411;48.148;7.704;2022-07-23T04:33:37;22.70;;;20.73;;
20505;SDS011;10411;48.148;7.704;2022-07-23T04:36:09;22.80;;;21.03;;
20505;SDS011;10411;48.148;7.704;2022-07-23T04:41:14;21.87;;;20.37;;
20505;SDS011;10411;48.148;7.704;2022-07-23T04:43:46;21.97;;;20.37;;
20505;SDS011;10411;48.148;7.704;2022-07-23T04:46:22;21.50;;;20.00;;
20505;SDS011;10411;48.148;7.704;2022-07-23T04:51:27;21.60;;;20.20;;
20505;SDS011;10411;48.148;7.704;2022-07-23T04:53:56;21.20;;;19.80;;
20505;SDS011;10411;48.148;7.704;2022-07-23T04:56:24;21.93;;;20.23;;
20505;SDS011;10411;48.148;7.704;2022-07-23T04:58:53;21.43;;;19.83;;
20505;SDS011;10411;48.148;7.704;2022-07-23T05:01:27;23.00;;;21.10;;
20505;SDS011;10411;48.148;7.704;2022-07-23T05:04:04;21.20;;;19.80;;
20505;SDS011;10411;48.148;7.704;2022-07-23T05:06:47;21.90;;;20.37;;
20505;SDS011;10411;48.148;7.704;2022-07-23T05:09:24;21.83;;;20.33;;
20505;SDS011;10411;48.148;7.704;2022-07-23T05:11:56;21.80;;;20.20;;
20505;SDS011;10411;48.148;7.704;2022-07-23T05:28:46;21.80;;;20.07;;
20505;SDS011;10411;48.148;7.704;2022-07-23T05:31:26;21.37;;;19.87;;
20505;SDS011;10411;48.148;7.704;2022-07-23T05:34:00;22.33;;;20.67;;
20505;SDS011;10411;48.148;7.704;2022-07-23T05:36:31;22.27;;;20.63;;
20505;SDS011;10411;48.148;7.704;2022-07-23T05:39:02;23.50;;;21.53;;
20505;SDS011;10411;48.148;7.704;2022-07-23T05:41:51;23.07;;;21.30;;
20505;SDS011;10411;48.148;7.704;2022-07-23T05:47:05;22.27;;;20.67;;
20505;SDS011;10411;48.148;7.704;2022-07-23T05:49:33;22.33;;;20.80;;
20505;SDS011;10411;48.148;7.704;2022-07-23T05:52:08;22.80;;;21.10;;
20505;SDS011;10411;48.148;7.704;2022-07-23T05:54:39;23.53;;;21.80;;
20505;SDS011;10411;48.148;7.704;2022-07-23T05:57:12;23.80;;;22.00;;
20505;SDS011;10411;48.148;7.704;2022-07-23T05:59:40;23.17;;;21.47;;
20505;SDS011;10411;48.148;7.704;2022-07-23T06:53:15;23.23;;;20.90;;
20505;SDS011;10411;48.148;7.704;2022-07-23T06:55:41;21.83;;;20.43;;
20505;SDS011;10411;48.148;7.704;2022-07-23T06:58:07;23.30;;;21.20;;
20505;SDS011;10411;48.148;7.704;2022-07-23T07:00:34;23.00;;;21.20;;
20505;SDS011;10411;48.148;7.704;2022-07-23T07:03:00;22.60;;;20.90;;
20505;SDS011;10411;48.148;7.704;2022-07-23T07:05:26;23.90;;;21.88;;
20505;SDS011;10411;48.148;7.704;2022-07-23T07:07:55;23.70;;;21.90;;
20505;SDS011;10411;48.148;7.704;2022-07-23T07:10:22;22.38;;;20.98;;
20505;SDS011;10411;48.148;7.704;2022-07-23T07:12:48;21.65;;;19.98;;
20505;SDS011;10411;48.148;7.704;2022-07-23T07:15:14;22.10;;;20.63;;
20505;SDS011;10411;48.148;7.704;2022-07-23T07:17:39;22.38;;;20.67;;
20505;SDS011;10411;48.148;7.704;2022-07-23T07:20:07;22.35;;;20.77;;
20505;SDS011;10411;48.148;7.704;2022-07-23T07:22:33;21.27;;;19.90;;
20505;SDS011;10411;48.148;7.704;2022-07-23T07:24:59;20.67;;;19.38;;
20505;SDS011;10411;48.148;7.704;2022-07-23T07:27:25;21.83;;;20.13;;
20505;SDS011;10411;48.148;7.704;2022-07-23T07:29:51;22.67;;;21.08;;
20505;SDS011;10411;48.148;7.704;2022-07-23T07:32:17;22.30;;;20.45;;
20505;SDS011;10411;48.148;7.704;2022-07-23T07:34:43;21.73;;;20.10;;
20505;SDS011;10411;48.148;7.704;2022-07-23T07:37:09;21.88;;;20.23;;
20505;SDS011;10411;48.148;7.704;2022-07-23T07:39:35;21.27;;;19.77;;
20505;SDS011;10411;48.148;7.704;2022-07-23T07:42:01;21.40;;;19.95;;
20505;SDS011;10411;48.148;7.704;2022-07-23T07:44:27;21.30;;;19.70;;
20505;SDS011;10411;48.148;7.704;2022-07-23T07:46:53;20.42;;;19.13;;
20505;SDS011;10411;48.148;7.704;2022-07-23T07:49:19;21.10;;;19.63;;
20505;SDS011;10411;48.148;7.704;2022-07-23T07:51:45;20.83;;;19.15;;
20505;SDS011;10411;48.148;7.704;2022-07-23T07:54:11;20.10;;;18.70;;
20505;SDS011;10411;48.148;7.704;2022-07-23T07:56:37;19.77;;;18.35;;
20505;SDS011;10411;48.148;7.704;2022-07-23T07:59:04;19.27;;;18.02;;
20505;SDS011;10411;48.148;7.704;2022-07-23T08:01:29;20.27;;;18.40;;
20505;SDS011;10411;48.148;7.704;2022-07-23T08:03:55;21.35;;;19.65;;
20505;SDS011;10411;48.148;7.704;2022-07-23T08:06:21;20.88;;;19.48;;
20505;SDS011;10411;48.148;7.704;2022-07-23T08:08:48;20.52;;;19.02;;
20505;SDS011;10411;48.148;7.704;2022-07-23T08:11:14;20.02;;;18.35;;
20505;SDS011;10411;48.148;7.704;2022-07-23T08:13:40;20.70;;;19.15;;
20505;SDS011;10411;48.148;7.704;2022-07-23T08:16:06;20.23;;;18.83;;
20505;SDS011;10411;48.148;7.704;2022-07-23T08:18:32;20.05;;;18.50;;
20505;SDS011;10411;48.148;7.704;2022-07-23T08:20:58;21.85;;;19.02;;
20505;SDS011;10411;48.148;7.704;2022-07-23T08:23:24;19.80;;;18.48;;
20505;SDS011;10411;48.148;7.704;2022-07-23T08:25:50;21.08;;;19.42;;
20505;SDS011;10411;48.148;7.704;2022-07-23T08:28:16;20.55;;;19.15;;
20505;SDS011;10411;48.148;7.704;2022-07-23T08:30:43;20.60;;;18.75;;
20505;SDS011;10411;48.148;7.704;2022-07-23T08:33:10;22.05;;;20.25;;
20505;SDS011;10411;48.148;7.704;2022-07-23T08:35:38;20.70;;;19.25;;
20505;SDS011;10411;48.148;7.704;2022-07-23T08:38:08;20.80;;;19.40;;
20505;SDS011;10411;48.148;7.704;2022-07-23T08:40:38;21.73;;;19.90;;
20505;SDS011;10411;48.148;7.704;2022-07-23T08:43:05;21.58;;;19.98;;
20505;SDS011;10411;48.148;7.704;2022-07-23T08:45:32;22.05;;;20.48;;
20505;SDS011;10411;48.148;7.704;2022-07-23T08:48:00;22.60;;;20.90;;
20505;SDS011;10411;48.148;7.704;2022-07-23T08:50:27;22.98;;;21.30;;
20505;SDS011;10411;48.148;7.704;2022-07-23T08:52:53;22.65;;;20.80;;
20505;SDS011;10411;48.148;7.704;2022-07-23T08:55:20;22.80;;;21.10;;
20505;SDS011;10411;48.148;7.704;2022-07-23T08:57:50;20.77;;;19.38;;
20505;SDS011;10411;48.148;7.704;2022-07-23T09:00:17;20.08;;;18.77;;
20505;SDS011;10411;48.148;7.704;2022-07-23T09:02:44;21.25;;;19.75;;
20505;SDS011;10411;48.148;7.704;2022-07-23T09:05:10;21.45;;;19.95;;
20505;SDS011;10411;48.148;7.704;2022-07-23T09:07:37;22.05;;;20.20;;
20505;SDS011;10411;48.148;7.704;2022-07-23T09:10:07;20.13;;;18.92;;
20505;SDS011;10411;48.148;7.704;2022-07-23T09:12:34;20.83;;;19.15;;
20505;SDS011;10411;48.148;7.704;2022-07-23T09:15:06;20.98;;;19.58;;
20505;SDS011;10411;48.148;7.704;2022-07-23T09:17:39;21.15;;;19.65;;
20505;SDS011;10411;48.148;7.704;2022-07-23T09:20:10;18.88;;;17.67;;
20505;SDS011;10411;48.148;7.704;2022-07-23T09:22:36;20.77;;;19.30;;
20505;SDS011;10411;48.148;7.704;2022-07-23T09:25:12;20.73;;;19.42;;
20505;SDS011;10411;48.148;7.704;2022-07-23T09:30:11;20.65;;;19.15;;
20505;SDS011;10411;48.148;7.704;2022-07-23T09:32:38;20.25;;;18.85;;
20505;SDS011;10411;48.148;7.704;2022-07-23T09:35:04;20.05;;;18.80;;
20505;SDS011;10411;48.148;7.704;2022-07-23T09:37:30;20.45;;;19.05;;
20505;SDS011;10411;48.148;7.704;2022-07-23T09:40:03;20.17;;;18.88;;
20505;SDS011;10411;48.148;7.704;2022-07-23T09:42:29;21.63;;;20.23;;
20505;SDS011;10411;48.148;7.704;2022-07-23T09:44:58;20.80;;;19.48;;
20505;SDS011;10411;48.148;7.704;2022-07-23T09:47:29;21.35;;;19.63;;
20505;SDS011;10411;48.148;7.704;2022-07-23T09:52:26;20.35;;;18.85;;
20505;SDS011;10411;48.148;7.704;2022-07-23T09:54:57;21.27;;;19.90;;
20505;SDS011;10411;48.148;7.704;2022-07-23T09:57:24;21.90;;;20.48;;
20505;SDS011;10411;48.148;7.704;2022-07-23T09:59:51;21.50;;;20.00;;
20505;SDS011;10411;48.148;7.704;2022-07-23T10:02:17;21.75;;;20.35;;
20505;SDS011;10411;48.148;7.704;2022-07-23T10:04:43;22.25;;;20.95;;
20505;SDS011;10411;48.148;7.704;2022-07-23T10:07:10;20.60;;;19.30;;
20505;SDS011;10411;48.148;7.704;2022-07-23T10:09:38;21.70;;;20.27;;
20505;SDS011;10411;48.148;7.704;2022-07-23T10:12:05;22.15;;;20.35;;
20505;SDS011;10411;48.148;7.704;2022-07-23T10:14:53;20.13;;;18.52;;
20505;SDS011;10411;48.148;7.704;2022-07-23T10:17:19;21.10;;;19.60;;
20505;SDS011;10411;48.148;7.704;2022-07-23T10:19:45;21.63;;;20.13;;
20505;SDS011;10411;48.148;7.704;2022-07-23T10:22:12;22.30;;;20.63;;
20505;SDS011;10411;48.148;7.704;2022-07-23T10:24:58;22.45;;;20.92;;
20505;SDS011;10411;48.148;7.704;2022-07-23T10:30:02;20.75;;;19.35;;
20505;SDS011;10411;48.148;7.704;2022-07-23T10:37:34;20.90;;;19.50;;
20505;SDS011;10411;48.148;7.704;2022-07-23T10:40:15;23.25;;;21.67;;
20505;SDS011;10411;48.148;7.704;2022-07-23T10:42:42;21.80;;;20.40;;
20505;SDS011;10411;48.148;7.704;2022-07-23T10:47:54;22.00;;;20.48;;
20505;SDS011;10411;48.148;7.704;2022-07-23T10:50:22;21.83;;;20.23;;
20505;SDS011;10411;48.148;7.704;2022-07-23T10:58:00;20.40;;;18.88;;
20505;SDS011;10411;48.148;7.704;2022-07-23T11:00:28;22.05;;;20.40;;
20505;SDS011;10411;48.148;7.704;2022-07-23T11:02:55;21.50;;;20.00;;
20505;SDS011;10411;48.148;7.704;2022-07-23T11:05:25;20.08;;;18.85;;
20505;SDS011;10411;48.148;7.704;2022-07-23T11:10:33;25.65;;;20.38;;
20505;SDS011;10411;48.148;7.704;2022-07-23T11:16:18;21.10;;;19.70;;
20505;SDS011;10411;48.148;7.704;2022-07-23T11:21:51;21.83;;;20.27;;
20505;SDS011;10411;48.148;7.704;2022-07-23T11:31:57;21.25;;;19.73;;
20505;SDS011;10411;48.148;7.704;2022-07-23T11:36:55;22.08;;;20.67;;
20505;SDS011;10411;48.148;7.704;2022-07-23T11:39:21;21.85;;;20.42;;
20505;SDS011;10411;48.148;7.704;2022-07-23T11:41:50;22.60;;;20.92;;
20505;SDS011;10411;48.148;7.704;2022-07-23T11:44:26;22.15;;;20.45;;
20505;SDS011;10411;48.148;7.704;2022-07-23T11:46:58;22.63;;;20.73;;
20505;SDS011;10411;48.148;7.704;2022-07-23T11:49:25;22.90;;;21.33;;
20505;SDS011;10411;48.148;7.704;2022-07-23T11:52:10;22.55;;;21.05;;
20505;SDS011;10411;48.148;7.704;2022-07-23T11:54:40;21.77;;;20.27;;
20505;SDS011;10411;48.148;7.704;2022-07-23T11:57:12;22.33;;;20.50;;
20505;SDS011;10411;48.148;7.704;2022-07-23T11:59:38;21.45;;;20.10;;
20505;SDS011;10411;48.148;7.704;2022-07-23T12:02:04;21.77;;;20.08;;
20505;SDS011;10411;48.148;7.704;2022-07-23T12:04:39;22.02;;;20.35;;
20505;SDS011;10411;48.148;7.704;2022-07-23T12:09:50;21.02;;;19.63;;
20505;SDS011;10411;48.148;7.704;2022-07-23T12:12:16;21.85;;;20.40;;
20505;SDS011;10411;48.148;7.704;2022-07-23T12:14:53;21.80;;;20.30;;
20505;SDS011;10411;48.148;7.704;2022-07-23T12:17:19;21.65;;;20.05;;
20505;SDS011;10411;48.148;7.704;2022-07-23T12:19:46;22.17;;;20.55;;
20505;SDS011;10411;48.148;7.704;2022-07-23T12:22:12;22.77;;;21.02;;
20505;SDS011;10411;48.148;7.704;2022-07-23T12:27:21;22.65;;;20.90;;
20505;SDS011;10411;48.148;7.704;2022-07-23T12:29:47;22.48;;;20.80;;
20505;SDS011;10411;48.148;7.704;2022-07-23T12:32:22;23.60;;;21.65;;
20505;SDS011;10411;48.148;7.704;2022-07-23T12:35:02;22.92;;;21.13;;
20505;SDS011;10411;48.148;7.704;2022-07-23T12:37:31;22.42;;;20.83;;
20505;SDS011;10411;48.148;7.704;2022-07-23T12:39:58;22.17;;;20.63;;
20505;SDS011;10411;48.148;7.704;2022-07-23T12:42:24;21.92;;;20.42;;
20505;SDS011;10411;48.148;7.704;2022-07-23T12:45:06;22.45;;;20.85;;
20505;SDS011;10411;48.148;7.704;2022-07-23T12:47:52;21.90;;;20.35;;
20505;SDS011;10411;48.148;7.704;2022-07-23T12:53:14;22.02;;;20.35;;
20505;SDS011;10411;48.148;7.704;2022-07-23T12:55:41;21.80;;;20.23;;
20505;SDS011;10411;48.148;7.704;2022-07-23T12:58:11;22.40;;;20.80;;
20505;SDS011;10411;48.148;7.704;2022-07-23T13:03:27;22.75;;;20.90;;
20505;SDS011;10411;48.148;7.704;2022-07-23T13:05:54;22.05;;;20.40;;
20505;SDS011;10411;48.148;7.704;2022-07-23T13:08:20;22.38;;;20.67;;
20505;SDS011;10411;48.148;7.704;2022-07-23T13:10:46;22.50;;;20.67;;
20505;SDS011;10411;48.148;7.704;2022-07-23T13:13:14;22.13;;;20.45;;
20505;SDS011;10411;48.148;7.704;2022-07-23T13:15:40;21.63;;;20.02;;
20505;SDS011;10411;48.148;7.704;2022-07-23T13:18:06;21.08;;;19.38;;
20505;SDS011;10411;48.148;7.704;2022-07-23T13:20:32;21.70;;;20.23;;
20505;SDS011;10411;48.148;7.704;2022-07-23T13:22:59;21.48;;;19.88;;
20505;SDS011;10411;48.148;7.704;2022-07-23T13:25:25;21.88;;;20.48;;
20505;SDS011;10411;48.148;7.704;2022-07-23T13:27:51;22.58;;;20.77;;
20505;SDS011;10411;48.148;7.704;2022-07-23T13:30:17;21.83;;;20.30;;
20505;SDS011;10411;48.148;7.704;2022-07-23T13:32:43;20.67;;;19.38;;
20505;SDS011;10411;48.148;7.704;2022-07-23T13:35:09;21.92;;;20.48;;
20505;SDS011;10411;48.148;7.704;2022-07-23T13:37:37;21.20;;;19.77;;
20505;SDS011;10411;48.148;7.704;2022-07-23T13:40:03;22.50;;;20.90;;
20505;SDS011;10411;48.148;7.704;2022-07-23T13:42:29;21.92;;;20.42;;
20505;SDS011;10411;48.148;7.704;2022-07-23T13:44:55;21.63;;;20.13;;
20505;SDS011;10411;48.148;7.704;2022-07-23T13:47:21;20.85;;;19.55;;
20505;SDS011;10411;48.148;7.704;2022-07-23T13:49:47;21.52;;;20.02;;
20505;SDS011;10411;48.148;7.704;2022-07-23T13:52:13;21.63;;;20.02;;
20505;SDS011;10411;48.148;7.704;2022-07-23T13:54:39;21.00;;;19.60;;
20505;SDS011;10411;48.148;7.704;2022-07-23T13:57:05;21.23;;;19.80;;
20505;SDS011;10411;48.148;7.704;2022-07-23T13:59:32;22.02;;;20.20;;
20505;SDS011;10411;48.148;7.704;2022-07-23T14:01:58;22.05;;;20.42;;
20505;SDS011;10411;48.148;7.704;2022-07-23T14:04:24;21.63;;;20.05;;
20505;SDS011;10411;48.148;7.704;2022-07-23T14:06:50;20.65;;;19.02;;
20505;SDS011;10411;48.148;7.704;2022-07-23T14:09:16;21.75;;;20.08;;
20505;SDS011;10411;48.148;7.704;2022-07-23T14:11:42;21.75;;;20.20;;
20505;SDS011;10411;48.148;7.704;2022-07-23T14:14:08;21.45;;;20.05;;
20505;SDS011;10411;48.148;7.704;2022-07-23T14:16:34;21.13;;;19.67;;
20505;SDS011;10411;48.148;7.704;2022-07-23T14:19:00;21.98;;;20.40;;
20505;SDS011;10411;48.148;7.704;2022-07-23T14:21:27;20.60;;;19.23;;
20505;SDS011;10411;48.148;7.704;2022-07-23T14:23:53;21.17;;;19.67;;
20505;SDS011;10411;48.148;7.704;2022-07-23T14:26:19;21.17;;;19.77;;
20505;SDS011;10411;48.148;7.704;2022-07-23T14:28:45;21.17;;;19.58;;
20505;SDS011;10411;48.148;7.704;2022-07-23T14:31:11;22.00;;;20.50;;
20505;SDS011;10411;48.148;7.704;2022-07-23T14:33:37;21.55;;;20.05;;
20505;SDS011;10411;48.148;7.704;2022-07-23T14:36:03;21.67;;;20.33;;
20505;SDS011;10411;48.148;7.704;2022-07-23T14:38:29;21.42;;;19.83;;
20505;SDS011;10411;48.148;7.704;2022-07-23T14:40:55;20.88;;;19.58;;
20505;SDS011;10411;48.148;7.704;2022-07-23T14:43:21;21.60;;;19.77;;
20505;SDS011;10411;48.148;7.704;2022-07-23T14:45:47;21.83;;;20.27;;
20505;SDS011;10411;48.148;7.704;2022-07-23T14:48:13;21.88;;;20.13;;
20505;SDS011;10411;48.148;7.704;2022-07-23T14:50:39;21.83;;;20.23;;
20505;SDS011;10411;48.148;7.704;2022-07-23T14:53:05;22.00;;;20.60;;
20505;SDS011;10411;48.148;7.704;2022-07-23T14:55:32;22.88;;;21.42;;
20505;SDS011;10411;48.148;7.704;2022-07-23T14:57:58;23.98;;;21.50;;
20505;SDS011;10411;48.148;7.704;2022-07-23T15:00:24;22.02;;;20.27;;
20505;SDS011;10411;48.148;7.704;2022-07-23T15:02:51;22.80;;;21.10;;
20505;SDS011;10411;48.148;7.704;2022-07-23T15:05:18;21.02;;;19.50;;
20505;SDS011;10411;48.148;7.704;2022-07-23T15:07:44;21.08;;;19.45;;
20505;SDS011;10411;48.148;7.704;2022-07-23T15:10:10;21.50;;;19.92;;
20505;SDS011;10411;48.148;7.704;2022-07-23T15:12:37;20.23;;;18.90;;
20505;SDS011;10411;48.148;7.704;2022-07-23T15:15:03;21.48;;;20.05;;
20505;SDS011;10411;48.148;7.704;2022-07-23T15:17:29;20.88;;;19.58;;
20505;SDS011;10411;48.148;7.704;2022-07-23T15:19:55;21.42;;;20.13;;
20505;SDS011;10411;48.148;7.704;2022-07-23T15:22:21;21.42;;;20.02;;
20505;SDS011;10411;48.148;7.704;2022-07-23T15:24:47;22.10;;;20.50;;
20505;SDS011;10411;48.148;7.704;2022-07-23T15:27:13;21.98;;;20.15;;
20505;SDS011;10411;48.148;7.704;2022-07-23T15:29:41;22.15;;;20.65;;
20505;SDS011;10411;48.148;7.704;2022-07-23T15:32:07;21.92;;;20.40;;
20505;SDS011;10411;48.148;7.704;2022-07-23T15:34:33;21.80;;;20.38;;
20505;SDS011;10411;48.148;7.704;2022-07-23T15:36:59;22.33;;;20.52;;
20505;SDS011;10411;48.148;7.704;2022-07-23T15:39:26;20.83;;;19.42;;
20505;SDS011;10411;48.148;7.704;2022-07-23T15:41:52;22.13;;;20.40;;
20505;SDS011;10411;48.148;7.704;2022-07-23T15:44:18;21.17;;;19.58;;
20505;SDS011;10411;48.148;7.704;2022-07-23T15:46:44;22.40;;;20.80;;
20505;SDS011;10411;48.148;7.704;2022-07-23T15:49:10;22.33;;;20.58;;
20505;SDS011;10411;48.148;7.704;2022-07-23T16:30:50;24.35;;;22.35;;
20505;SDS011;10411;48.148;7.704;2022-07-23T16:33:19;26.38;;;24.38;;
20505;SDS011;10411;48.148;7.704;2022-07-23T16:35:45;27.13;;;25.08;;
20505;SDS011;10411;48.148;7.704;2022-07-23T16:38:11;26.90;;;24.33;;
20505;SDS011;10411;48.148;7.704;2022-07-23T16:40:37;25.17;;;22.98;;
20505;SDS011;10411;48.148;7.704;2022-07-23T16:43:03;28.23;;;25.83;;
20505;SDS011;10411;48.148;7.704;2022-07-23T16:45:29;26.25;;;24.20;;
20505;SDS011;10411;48.148;7.704;2022-07-23T16:47:56;23.50;;;21.70;;
20505;SDS011;10411;48.148;7.704;2022-07-23T16:50:22;26.75;;;24.30;;
20505;SDS011;10411;48.148;7.704;2022-07-23T16:52:48;25.65;;;23.65;;
20505;SDS011;10411;48.148;7.704;2022-07-23T16:55:14;27.58;;;25.17;;
20505;SDS011;10411;48.148;7.704;2022-07-23T16:57:40;29.83;;;27.00;;
20505;SDS011;10411;48.148;7.704;2022-07-23T17:00:09;26.75;;;24.40;;
20505;SDS011;10411;48.148;7.704;2022-07-23T17:02:38;26.38;;;24.15;;
20505;SDS011;10411;48.148;7.704;2022-07-23T17:05:04;27.13;;;24.80;;
20505;SDS011;10411;48.148;7.704;2022-07-23T17:07:32;28.02;;;25.52;;
20505;SDS011;10411;48.148;7.704;2022-07-23T17:09:58;27.63;;;25.23;;
20505;SDS011;10411;48.148;7.704;2022-07-23T17:12:24;29.08;;;26.70;;
20505;SDS011;10411;48.148;7.704;2022-07-23T17:14:50;28.75;;;26.23;;
20505;SDS011;10411;48.148;7.704;2022-07-23T17:17:16;25.95;;;23.80;;
20505;SDS011;10411;48.148;7.704;2022-07-23T17:19:42;22.60;;;20.98;;
20505;SDS011;10411;48.148;7.704;2022-07-23T17:22:08;25.02;;;22.83;;
20505;SDS011;10411;48.148;7.704;2022-07-23T17:24:34;21.70;;;20.05;;
20505;SDS011;10411;48.148;7.704;2022-07-23T17:27:02;22.23;;;20.45;;
20505;SDS011;10411;48.148;7.704;2022-07-23T17:29:28;22.85;;;21.10;;